Hallandale, FL (33008)

2:32 PM EDT on October 23, 2014 (GMT -0400)
Hollywood (City Hall area) | Change Station
CLOSE
Current Station
Personal Weather Station
Location: Hollywood, FL
Elevation: 39 ft
Nearby Weather Stations
Active Advisory: Coastal Hazard Statement

Elev 39 ft 26.01 °N, 80.16 °W | Updated 59 seconds ago

Mostly Cloudy
Mostly Cloudy
78.4 °F
Feels Like 81 °F
N
3.0
Wind Variable Wind from NE
Gusts 4.0 mph

Today
High -- | Low -- °F
--% Chance of Precip.
Yesterday
High -- | Low -- °F
Precip. -- in
7:23 AM 6:45 PM
Waning Crescent, 0% visible
Pressure 29.90 in
Visibility 10.0 miles
Clouds Few 1200 ft
Mostly Cloudy 2500 ft
Mostly Cloudy 3500 ft
Heat Index 81 °F
Dew Point 73 °F
Humidity 84%
Rainfall 0.29 in
Snow Depth Not available.
UV 5 out of 12
Pollen .40 out of 12
Air Quality Not available.
Flu Activity Local Activity
METAR KFLL 231753Z 04011KT 10SM FEW012 BKN025 BKN035 26/22 A2990 RMK AO2 SLP123 60001 T02610222 10267 20244 58015

More Conditions Fewer Conditions

Pressure 29.90 in
Visibility 10.0 miles
Clouds Few 1200 ft
Mostly Cloudy 2500 ft
Mostly Cloudy 3500 ft
Heat Index 81 °F
Dew Point 73 °F
Humidity 84%
Rainfall 0.29 in
Snow Depth Not available.
UV 5 out of 12
Pollen .40 out of 12
Air Quality Not available.
Flu Activity Local Activity
METAR KFLL 231753Z 04011KT 10SM FEW012 BKN025 BKN035 26/22 A2990 RMK AO2 SLP123 60001 T02610222 10267 20244 58015

More Conditions Fewer Conditions

Nowcast | as of 1:53 PM EDT on October 23, 2014

Bands of moderate to heavy showers across the Atlantic waters continue to slowly stream to the west and should make it into the East Coast Metro areas through the evening. Isolated heavy rainfall possibly leading to localized urban flooding will be the main threat.

×

10-Day Weather Forecast

Almanac

Astronomy

Oct. 23, 2014 Rise Set
Actual Time 7:23 AM EDT 6:45 PM EDT
Civil Twilight 7:00 AM EDT 7:09 PM EDT
Nautical Twilight 6:33 AM EDT 7:36 PM EDT
Astronomical Twilight 6:06 AM EDT 8:02 PM EDT
Moon 7:04 AM EDT 6:46 PM EDT
Length of Visible Light 12h 08m
Length of Day
11h 21m
Tomorrow will be 1m 25s shorter.
Waning Crescent, 0% of the Moon is Illuminated
Today
Waning Crescent
Oct 23
New
Oct 30
First Quarter
Nov 6
Full
Nov 14
Last Quarter

Today's Extremes

State Highs State Lows

Community

WunderPhotos

Upload Photos

1,764,338 photos uploaded!

WunderBlogs® & News

Nearby

Air Quality

  Air Quality AQ Index Pollutant
Yesterday Good
OZONE
Thursday Good
OZONE
Thursday Good
PM2.5
Friday Good
OZONE
Friday Good
PM2.5
Saturday Good
OZONE
Saturday Good
PM2.5
Sunday Good
OZONE
Sunday Good
PM2.5

Snow Depth

Station Depth Elevation
No new snow has been reported.

Earthquake Activity

City Distance Mag. Time & Date
No recent earthquake activity has been reported nearby.
Minimum magnitude displayed is 2.5.

Coastal Water Temperatures

Place Temperature
Virginia Key, FL 81.0 °F

Nearby Weather Stations